Timeline UpdatesTrip UpdatesNews PostsPvt Posts♥♥Travel TipsAdmin PostsConv PostsFollowed PostsChat RequestsBlog PostsPNR Posts

Disclaimer
Search
 
 
Wed Nov 26, 2014 14:21:23 ISTHomeTrainsΣChainsAtlasPNRForumGalleryNewsFAQTripsMembersLoginFeedback
No Recent News for this Train
Other Trains in the News **new
Latest...
..
Fri Jul 11, 2014 (12:57PM)
⇐ Return Journey: Train# 19165

19166/Sabarmati Express

Time-Table HAS CHANGED.
Sep 01 2014 (11:16PM)
Change Departure Station:
Change Arrival Station:
Post a Train Travel TipPost a Train Travel Tip **new
Post a Comment/Question/Picture/VideoPost a Comment/Question/Picture/Video
Pantry/Catering
✕ NO Pantry Car
✕ NO Catering
Loco/Rake Reversals
BRC/Vadodara Junction (7); SHG/Shahganj Junction (4); BINA/Bina Junction (5); SPJ/Samastipur Junction (9);
RSA - Rake Sharing
19165/19166/19167/19168 has RSA.By Pankaj Mishra Entry# 695685
Rake/Coach Composition
LOCO-SLR-GS-GS-S13-S12-S11-S10-S9-S8-S7-S6-S5-S4-S3-S2-S1-B2-B1-A1-GS-GS-SLR
Loco
RTM WDM3A [DBG TO RTM] BRC WAP4e [RTM TO ADI]
News    PNR    Forum    Time-Table    Availability    Fare Chart    Map    Arr/Dep History    Trips    Gallery    ΣChains    X/O    Timeline    
Travel Time: 2h 35m    3 halts    Distance: 119 km    Avg Speed: 46 km/hr
Type: Mail/Express
Zone: WR/Western
Departs @ 09:25
Platform# 4
S T T  
Bina Junction/BINA 
Arrives @ 12:00
Platform# 1
S T T  
Guna Junction/GUNA 

3 halts. 16 intermediate Stations between Bina Junction and Guna Junction

Show ALL intermediate Stations  Show Old Time-Table

#TrkCodeStation NameX/OArrivesAvgDepartsAvgHaltPFDay#KmSpeedElevZoneAddress
1|--|DBGDarbhanga Junction (5)  -04:30-11-1114.63054mECRDarbhanga, Bihar
2|--|LSILaheria Sarai (1)X  04:40-04:42 04:43-2 3m11-1109.63752mECRDarbhanga, Bihar
3|--|SPJSamastipur Junction (9)X05:35-06:00-25m--1-1077.25755mECRSamastipur, Bihar
4/==/MFPMuzaffarpur Junction (6)  06:50 06:55-07:00-10 5m--1-1025.07357mECRMuzaffarpur, Bihar
5/=-/HJPHajipur Junction (3)X  07:54 07:44-07:55 07:49-1 5m11-971.23355mECR06224-272230, Bihar
6/==/SEESonpur Junction (4)X  08:05 07:59-08:10 08:14-5 15m--1-965.74056mECRSaran, Bihar
7/==/CPRChhapra Junction (6)  09:35-09:50-15m--1-911.64658mNERDistt: Saran, Bihar
8|--|SIPSuraimanpurX  10:32 10:28-10:33 10:30-1 2m--1-882.56360mNERBallia, Uttar Pradesh
9|--|STWSahatwar  10:56 10:48-10:57 10:50-1 2m--1-863.54563mNERBallia district, Uttar Pradesh
10|--|BUIBallia (3)X  11:17 11:13-11:22 11:18-5m11-846.13962mNERBallia, Uttar Pradesh
11|--|RSRRasra (2)  12:05 12:08-12:06 12:10-1 2m--1-813.46570mNERRasra, Uttar Pradesh
12|--|IAAIndara Junction (3)X  12:34 12:36-12:36 12:38-2m--1-785.12874mNERMau, Uttar Pradesh
13|=-|MAUMau Junction (4)  12:50 12:55-13:05-15 10m11-777.26275mNERMau., Uttar Pradesh
14|--|MMAMuhammadabad (2)  13:27 13:26-13:28-1 2m--1-755.55580mNERMuhammadabad Marg, Uttar Pradesh
15|--|SAASathiaon (1)  13:39 13:38-13:40-1 2m11-746.43781mNERState Highway 34, Uttar Pradesh
16|--|AMHAzamgarh (2)X  14:00-14:05 14:10-5 10m11-733.93581mNERAzamgarh, Uttar Pradesh
17|--|SMZSarai Mir (2)  14:55 14:54-14:56-1 2m--1-708.03587mNERTowa Ahirana, Uttar Pradesh
18|--|KRNDKhorason Road (2)X  15:12 15:11-15:13-1 2m--1-699.22285mNERUttar Pradesh 276304 ?, Uttar Pradesh
19|--|SHGShahganj Junction (4)16:10-16:35-25m--1-678.07590mNRShahganj, Uttar Pradesh
20|--|MLPRMalipur (2)X  16:56 16:55-16:57-1 2m--1-653.05292mNRMalipur, Uttar Pradesh
21|--|ABPAkbarpur Junction (2)X  17:19-17:23-4m--1-633.96192mNRAkbarpur, Uttar Pradesh
22|--|GGJGoshainGanj (3)X  17:46 17:45-17:47-1 2m--1-611.75098mNRGoshainganj, Uttar Pradesh
23|--|AYAyodhya Junction (3)O  18:26 18:25-18:27-1 2m11-580.01098mNRAyodhya, Uttar Pradesh
24|--|FDFaizabad Junction (5)  18:50 19:07-19:15-25 8m--1-573.351104mNRFaizabad, Uttar Pradesh
25|--|RDLRudauli (2)O  20:00-20:01-1m--1-535.243112mNRRudauli, Uttar Pradesh
26|--|DYDDaryabadXO  20:34 20:33-20:35-1 2m--1-512.029116mNRFaizabad Rd, Uttar Pradesh
27|--|BBKBarabanki Junction (4)X  21:55 21:54-21:56-1 2m--1-474.025 NRPin-225001, Uttar Pradesh
28/==/LKOLucknow Charbagh NR (9)  23:05-23:20-15m71-445.552 NR226004, Uttar Pradesh
29/==/ONUnnao Junction (5)X  00:23-00:24-1m--2-390.927129mNRUnnao, Uttar Pradesh
30/==/CNBKanpur Central (10)X  01:02-01:10-8m62-373.534128mNCRKANPUR-208 001, Uttar Pradesh
31/-=/BZMBhimsen (1)  01:36 01:35-01:37-1 2m12-359.483136mNCRKanpur, Uttar Pradesh
32/--/PHNPokhrayan (2)X  02:10 02:09-02:11-1 2m12-315.060133mNCRPukhrayan, Uttar Pradesh
33/--/KPIKalpi  02:27 02:26-02:28-1 2m--2-299.960114mNCRKalpi Orai(05162-252206), Uttar Pradesh
34/--/ORAIOrai (3)  03:05 03:01-03:06-1 5m--2-267.282139mNCROrai(05162-252206), Uttar Pradesh
35/--/AITAit Junction (2)X  03:24-03:26-2m12-242.582154mNCROrai(05162-252206), Uttar Pradesh
36/--/MOTHMothX  03:52 03:51-03:53-1 2m--2-208.574175mNCRJhansi, Uttar Pradesh
37/--/CGNChirgaon  04:13 04:12-04:14-1 2m--2-185.025192mNCRChirgaon, Uttar Pradesh
38/--/JHSJhansi Junction (7)X  05:30-05:38 05:45-8 15m12-153.267259mNCRJhansi, Uttar Pradesh
39/==/BABBabina (3)  06:09 06:08-06:10-1 2m12-127.765285mNCRBabina, Uttar Pradesh
40/==/TBTTalbahat (4)  06:33-06:34 06:35-1 2m12-102.896314mNCRKhaniyadhana Station Rd, Madhya Pradesh
41/==/LARLalitpur (3)  07:09 07:00-07:10 07:02-1 2m12-62.977373mNCRLalitpur, Uttar Pradesh
42/==/JLNJakhalaun (3) new halt!!  07:15-07:17-2m--2-46.299394mNCRLalitpur(05176-272220), Uttar Pradesh
43/==/DUADhaura (3)X  07:39 07:24-07:40 07:26-1 2m--2-34.620407mNCRDhaura Tanda, Madhya Pradesh
44/==/BINABina Junction (5)»09:10-09:25-15m420.062414mWCRJn Pt - KATNI/GUNA/ BPL/JHS, Madhya Pradesh
45/--/MNVMungaoli (2)  09:54 09:53-09:55-1 2m--229.164403mWCRAshoknagar, Madhya Pradesh
46/--/PIAPipraigaon (3)  10:14 10:13-10:15-1 2m1248.366451mWCRAshoknagar, Madhya Pradesh
47/--/ASKNAshok Nagar (2)  10:40 10:39-10:41-1 2m--274.734502mWCRAshoknagar, Madhya Pradesh
48/-=%GUNAGuna Junction (3)•  11:55 12:00-12:05 12:10-10m12118.958477mWCRJn Point Indore/Gwalior/Bina/Kota, Madhya Pradesh
49%=-|RTARuthiyai Junction (2)  12:30 12:31-12:32 12:36-2 5m--2139.231414mWCRRuthiyai, Madhya Pradesh
50|--|VJPVijay PurX  12:45 12:46-12:46 12:48-1 2m--2144.348420mWCRVijaipur, Madhya Pradesh
51|--|KHRJKumbhraj (1)  13:06 13:12-13:07 13:14-1 2m12163.480401mWCRManpura, Madhya Pradesh
52|--|CBKChachaura Binaganj (1)  13:34 13:31-13:35 13:33-1 2m12186.154435mWCRGuna, Madhya Pradesh
53|--|BRRGBiyavra Rajgarh  14:01 14:07-14:02 14:09-1 2m--2216.560423mWCRBiaora, Madhya Pradesh
54|--|PFRPachor Road  14:34 14:38-14:35 14:40-1 2m--2245.768419mWCRPachore, Madhya Pradesh
55|--|SFWSarangpur  14:55 15:09-14:56 15:11-1 2m--2278.434422mWCRSarangpur, Madhya Pradesh
56|--|SFYShajapurX  15:59 15:58-16:00-1 2m--2305.018450mWCRShajapur, Madhya Pradesh
57|--/MKCMaksi Junction (3)X  17:35-17:37-2m--2332.857513mWRMakshi, Madhya Pradesh
58/==/TANTarana RoadX  17:46 17:47-17:47 17:49-1 2m--2342.349498mWRMaksi, Madhya Pradesh
59/==/UJNUjjain Junction (8)  18:30-18:50-20m--2375.856492mWRUjjain 456001, Madhya Pradesh
60/==/NADNagda Junction (4)  19:45 19:50-19:47 19:52-2m--2431.464468mWRNagda, Madhya Pradesh
61/==/KUHKhachrod (2)  19:59 20:05-20:00 20:07-1 2m--2445.259497mWRUjjain, Madhya Pradesh
62/==/RTMRatlam Junction (7)X  20:35-20:50-15m42472.878495mWRRatlam 457001, Madhya Pradesh
63/==/MGNMeghnagar (3)  21:51 21:52-21:52 21:54-1 2m--2553.183317mWRJhabua, Madhya Pradesh
64/==/DHDDahod (3)  22:17 22:18-22:18 22:20-1 2m--2586.240313mWRDahod, Gujarat
65/==/GDAGodhra Junction (3)X  00:10-00:15-5m13659.368122mWRGodhra, Gujarat
66/==/BRCVadodara Junction (7)XO01:25 01:20-01:55 01:50-30m63733.26136mWRVadodara 390005, Gujarat
67/==/ANNDAnand Junction (6)X  02:31 02:25-02:32 02:27-1 2m23769.07444mWRAnand, Gujarat
68/==/NDNadiad Junction (4)XO  02:48 02:42-02:49 02:44-1 2m23787.57037mWRNadiad, Gujarat
69/==/MHDMahemdavad Kheda Road (4)XO  03:05 02:59-03:06 03:01-1 2m33805.14037mWRMahemdavad, Gujarat
70/==/MANManinagar (2)XO  03:42 03:38-03:43 03:40-1 2m13829.91050mWRAhmadabad, Gujarat
71/==/ADIAhmedabad Junction (12)  04:00--23833.1-51mWRAhmedabad, Gujarat
Scroll to Top
Scroll to Bottom